Time;durP1;ratioP1;P1;durP2;ratioP2;P2;SDS_P1;SDS_P2;PMS_P1;PMS_P2;Temp;Humidity;BMP_temperature;BMP_pressure;BME280_temperature;BME280_humidity;BME280_pressure;Samples;Min_cycle;Max_cycle;Signal;HPM_P1;HPM_P2
2022/01/21 00:01:07;;;;;;;5.27;1.97;;;;;;;2.63;100.00;103102.50;5045833;28;20418;-74
2022/01/21 00:03:34;;;;;;;8.50;1.70;;;;;;;2.77;100.00;103096.38;5048728;28;20257;-74
2022/01/21 00:06:00;;;;;;;4.93;1.90;;;;;;;2.63;100.00;103097.22;5028324;28;20849;-74
2022/01/21 00:08:25;;;;;;;5.67;1.60;;;;;;;2.32;100.00;103085.78;5047842;28;20495;-74
2022/01/21 00:10:51;;;;;;;8.93;1.87;;;;;;;2.67;100.00;103101.41;5045743;28;20190;-74
2022/01/21 00:13:33;;;;;;;14.50;2.10;;;;;;;2.72;100.00;103107.28;5046060;28;20207;-74
2022/01/21 00:16:00;;;;;;;9.00;2.67;;;;;;;2.74;100.00;103102.72;5046969;28;20180;-75
2022/01/21 00:18:26;;;;;;;5.50;1.63;;;;;;;2.90;100.00;103121.22;5047515;28;20859;-75
2022/01/21 00:31:47;;;;;;;6.23;1.90;;;;;;;2.92;100.00;103104.28;5045966;28;20398;-73
2022/01/21 00:34:13;;;;;;;10.43;2.13;;;;;;;2.33;100.00;103000.09;5047618;28;20428;-74
2022/01/21 00:36:38;;;;;;;6.73;2.67;;;;;;;2.96;100.00;103064.31;5046142;28;20183;-72
2022/01/21 00:39:05;;;;;;;16.20;2.57;;;;;;;3.12;100.00;103089.78;5046757;28;20260;-74
2022/01/21 00:41:34;;;;;;;7.07;1.80;;;;;;;3.02;100.00;103043.56;5047341;28;20188;-74
2022/01/21 00:43:59;;;;;;;8.87;2.17;;;;;;;2.56;100.00;103001.34;5045993;28;20426;-74
2022/01/21 00:46:25;;;;;;;9.37;2.03;;;;;;;3.14;100.00;103061.38;5045979;28;20815;-75
2022/01/21 00:48:50;;;;;;;9.50;2.00;;;;;;;3.17;100.00;103100.09;5045019;28;20272;-74
2022/01/21 00:51:16;;;;;;;9.83;2.00;;;;;;;3.10;100.00;103093.50;5044380;28;20184;-74
2022/01/21 00:53:41;;;;;;;7.73;1.57;;;;;;;3.05;100.00;103090.25;5046878;28;20592;-74
2022/01/21 00:56:06;;;;;;;10.63;2.63;;;;;;;2.89;100.00;103098.28;5045807;28;20188;-74
2022/01/21 00:58:32;;;;;;;5.77;2.00;;;;;;;3.08;100.00;103108.63;5045734;28;20205;-74
2022/01/21 01:00:57;;;;;;;3.53;1.20;;;;;;;2.99;100.00;103125.13;5044843;28;20453;-73
2022/01/21 01:03:23;;;;;;;7.60;1.87;;;;;;;2.97;100.00;103111.09;5045084;28;20267;-74
2022/01/21 01:05:51;;;;;;;4.67;1.53;;;;;;;2.92;100.00;103076.88;5046459;28;20196;-74
2022/01/21 01:08:17;;;;;;;4.80;1.37;;;;;;;2.94;100.00;103117.44;5029018;28;20204;-74
2022/01/21 01:11:14;;;;;;;5.23;1.53;;;;;;;2.86;100.00;103101.13;5045932;28;20422;-74
2022/01/21 01:21:48;;;;;;;7.00;1.60;;;;;;;3.16;100.00;103080.69;5045357;28;20413;-74
2022/01/21 01:29:57;;;;;;;7.20;1.80;;;;;;;3.02;100.00;103093.09;5046591;28;20444;-74
2022/01/21 01:32:24;;;;;;;5.17;1.40;;;;;;;3.02;100.00;103111.66;5044572;28;20427;-73
2022/01/21 01:34:50;;;;;;;8.03;1.43;;;;;;;2.71;100.00;103063.16;5046625;28;20190;-74
2022/01/21 01:37:31;;;;;;;5.93;1.30;;;;;;;2.66;100.00;103051.97;5044696;28;20422;-74
2022/01/21 01:40:13;;;;;;;8.80;1.20;;;;;;;3.06;100.00;103115.81;5046878;28;20594;-74
2022/01/21 01:50:38;;;;;;;7.23;1.50;;;;;;;3.17;100.00;103061.16;5047829;28;20447;-73
2022/01/21 01:53:05;;;;;;;9.87;2.50;;;;;;;3.29;100.00;103102.00;5048049;28;20422;-73
2022/01/21 01:55:31;;;;;;;5.10;1.57;;;;;;;3.07;100.00;103080.44;5029580;28;20187;-73
2022/01/21 01:57:57;;;;;;;11.83;2.60;;;;;;;3.01;100.00;103065.75;5046527;28;20464;-73
2022/01/21 02:00:22;;;;;;;4.00;1.43;;;;;;;3.40;100.00;103072.16;5045030;28;20841;-73
2022/01/21 02:02:47;;;;;;;10.77;2.77;;;;;;;3.25;100.00;103073.13;5044242;28;20207;-73
2022/01/21 02:05:13;;;;;;;8.40;1.60;;;;;;;3.17;100.00;103084.19;5044794;28;20194;-73
2022/01/21 02:07:39;;;;;;;11.97;2.00;;;;;;;2.50;100.00;102972.59;5044668;28;20190;-73
2022/01/21 02:10:04;;;;;;;9.27;1.80;;;;;;;3.21;100.00;103076.88;5044355;28;20202;-73
2022/01/21 02:12:30;;;;;;;5.70;1.50;;;;;;;3.31;100.00;103073.56;5044815;28;20179;-73
2022/01/21 02:14:58;;;;;;;5.23;1.37;;;;;;;3.31;100.00;103104.56;5045881;28;20214;-73
2022/01/21 02:22:44;;;;;;;4.40;1.50;;;;;;;2.98;100.00;103126.91;5045539;28;20413;-73
2022/01/21 02:25:17;;;;;;;5.33;1.40;;;;;;;2.84;100.00;103106.53;5045613;28;20428;-73
2022/01/21 02:27:56;;;;;;;4.00;1.33;;;;;;;2.79;100.00;103105.94;5044136;28;20982;-74
2022/01/21 02:30:23;;;;;;;8.83;1.87;;;;;;;2.88;100.00;103092.13;5043703;28;20414;-74
2022/01/21 02:32:52;;;;;;;5.50;1.97;;;;;;;2.57;100.00;103102.88;5042866;28;20529;-74
2022/01/21 02:35:18;;;;;;;6.60;1.87;;;;;;;2.89;100.00;103099.16;5043335;28;20487;-75
2022/01/21 02:37:44;;;;;;;4.57;1.60;;;;;;;2.91;100.00;103102.56;5042808;28;20507;-74
2022/01/21 02:40:11;;;;;;;8.00;1.60;;;;;;;2.77;100.00;103083.13;5046532;28;20958;-75
2022/01/21 02:42:37;;;;;;;4.57;1.57;;;;;;;2.91;100.00;103062.78;5033473;28;20468;-73
2022/01/21 02:45:05;;;;;;;4.20;1.67;;;;;;;2.54;100.00;103060.66;5019466;28;20825;-74
2022/01/21 02:47:30;;;;;;;6.20;1.23;;;;;;;2.57;100.00;103037.47;5044096;28;20344;-75
2022/01/21 02:49:56;;;;;;;12.37;1.70;;;;;;;2.79;100.00;103089.19;5044959;28;20453;-75
2022/01/21 02:52:25;;;;;;;7.43;1.50;;;;;;;2.95;100.00;103092.59;5045312;28;20195;-73
2022/01/21 02:54:50;;;;;;;4.77;1.90;;;;;;;2.74;100.00;103040.91;5028053;28;20353;-73
2022/01/21 02:57:16;;;;;;;7.93;1.73;;;;;;;3.31;100.00;103086.84;5043758;28;20852;-73
2022/01/21 02:59:41;;;;;;;8.00;1.87;;;;;;;2.61;100.00;103054.91;5029783;28;20203;-75
2022/01/21 03:02:07;;;;;;;7.20;2.37;;;;;;;2.77;100.00;103091.94;5048256;28;20242;-75
2022/01/21 03:07:01;;;;;;;7.97;1.57;;;;;;;2.39;100.00;102999.72;5047192;28;20188;-75
2022/01/21 03:09:26;;;;;;;6.80;2.40;;;;;;;2.85;100.00;103100.28;5048889;28;20476;-75
2022/01/21 03:11:51;;;;;;;7.20;1.60;;;;;;;2.18;100.00;102985.13;5046738;28;20184;-74
2022/01/21 03:14:17;;;;;;;9.97;1.83;;;;;;;3.00;100.00;103105.59;5048602;28;20192;-75
2022/01/21 03:16:42;;;;;;;6.10;1.80;;;;;;;3.23;100.00;103101.53;5046702;28;20188;-74
2022/01/21 03:19:07;;;;;;;8.70;2.10;;;;;;;3.05;100.00;103092.91;5049174;28;20518;-75
2022/01/21 03:21:33;;;;;;;12.47;1.60;;;;;;;2.90;100.00;103074.34;5048459;28;20183;-74
2022/01/21 03:23:58;;;;;;;10.20;1.90;;;;;;;3.06;100.00;103098.09;5048989;28;20533;-75
2022/01/21 03:26:26;;;;;;;11.17;2.17;;;;;;;3.02;100.00;103029.47;5047513;28;20211;-74
2022/01/21 03:28:54;;;;;;;6.10;2.10;;;;;;;3.07;100.00;103014.97;5056062;22;20779;-73
2022/01/21 03:31:20;;;;;;;9.90;2.13;;;;;;;3.48;100.00;103106.16;5046702;28;20434;-73
2022/01/21 03:33:46;;;;;;;8.97;2.10;;;;;;;3.22;100.00;103058.25;5030499;28;20513;-73
2022/01/21 03:36:12;;;;;;;11.37;1.90;;;;;;;3.51;100.00;103101.50;5048578;28;20437;-73
2022/01/21 03:38:38;;;;;;;7.77;1.40;;;;;;;3.33;100.00;103077.00;5031239;28;20238;-74
2022/01/21 03:41:04;;;;;;;5.87;1.43;;;;;;;2.96;100.00;103078.44;5047079;28;20907;-73
2022/01/21 03:43:30;;;;;;;7.53;1.30;;;;;;;3.40;100.00;103104.81;5030302;28;20834;-74
2022/01/21 03:45:56;;;;;;;4.70;1.10;;;;;;;3.35;100.00;103106.91;5048430;28;20453;-73
2022/01/21 03:48:22;;;;;;;4.57;0.90;;;;;;;3.25;100.00;103084.56;5047915;28;20183;-74
2022/01/21 03:50:48;;;;;;;2.73;0.80;;;;;;;3.59;100.00;103101.03;5047793;28;20188;-74
2022/01/21 03:53:14;;;;;;;3.10;1.00;;;;;;;3.11;100.00;103035.03;5047524;28;20717;-73
2022/01/21 03:55:39;;;;;;;2.10;0.70;;;;;;;3.11;100.00;103063.38;5048085;28;20437;-73
2022/01/21 03:58:07;;;;;;;3.63;0.83;;;;;;;2.90;100.00;103078.81;5046955;28;20176;-73
2022/01/21 04:00:45;;;;;;;4.50;1.10;;;;;;;3.42;100.00;103114.50;5048054;28;20230;-73
2022/01/21 04:03:10;;;;;;;8.43;1.10;;;;;;;3.36;100.00;103103.31;5031557;28;20429;-74
2022/01/21 04:05:36;;;;;;;5.23;1.40;;;;;;;3.26;100.00;103120.75;5047748;28;20429;-74
2022/01/21 04:08:04;;;;;;;9.17;1.30;;;;;;;3.28;100.00;103113.56;5048048;28;20211;-74
2022/01/21 04:10:29;;;;;;;4.17;0.80;;;;;;;3.16;100.00;103069.25;5046559;28;20418;-74
2022/01/21 04:12:55;;;;;;;3.67;1.10;;;;;;;2.77;100.00;103030.97;5048262;28;20472;-74
2022/01/21 04:15:22;;;;;;;3.57;1.20;;;;;;;3.08;100.00;103087.41;5045379;28;20677;-74
2022/01/21 04:17:47;;;;;;;2.80;1.10;;;;;;;3.19;100.00;103082.31;5047016;28;20719;-74
2022/01/21 04:20:13;;;;;;;4.87;1.30;;;;;;;3.09;100.00;103076.69;5046401;28;20472;-74
2022/01/21 04:22:39;;;;;;;8.70;1.07;;;;;;;3.28;100.00;103112.72;5047984;28;20629;-74
2022/01/21 04:25:05;;;;;;;10.87;1.70;;;;;;;3.27;100.00;103111.88;5047250;28;20629;-74
2022/01/21 04:27:31;;;;;;;11.00;1.47;;;;;;;2.78;100.00;103074.22;5045626;28;20267;-74
2022/01/21 04:29:56;;;;;;;8.27;1.77;;;;;;;2.80;100.00;103077.66;5047964;28;20529;-74
2022/01/21 04:32:21;;;;;;;10.00;1.87;;;;;;;2.77;100.00;103083.13;5047898;28;20920;-74
2022/01/21 04:34:47;;;;;;;2.90;1.20;;;;;;;2.85;100.00;103105.56;5030971;28;20191;-74
2022/01/21 04:37:15;;;;;;;5.33;1.80;;;;;;;2.89;100.00;103119.50;5047988;28;20667;-74
2022/01/21 04:39:47;;;;;;;5.70;1.50;;;;;;;2.99;100.00;103103.91;5048523;28;20286;-74
2022/01/21 04:47:29;;;;;;;8.93;1.90;;;;;;;2.96;100.00;103098.78;5048543;28;20917;-73
2022/01/21 04:49:54;;;;;;;5.63;1.73;;;;;;;3.04;100.00;103100.03;5045674;28;20450;-74
2022/01/21 04:52:21;;;;;;;5.77;2.03;;;;;;;3.20;100.00;103113.19;5047371;28;20277;-74
2022/01/21 04:54:47;;;;;;;2.40;0.97;;;;;;;3.25;100.00;103120.88;5048078;28;20202;-73
2022/01/21 04:57:12;;;;;;;7.30;1.80;;;;;;;3.42;100.00;103083.53;5047982;28;21057;-73
2022/01/21 04:59:39;;;;;;;2.93;1.03;;;;;;;3.49;100.00;103121.13;5046909;28;20223;-74
2022/01/21 05:02:05;;;;;;;4.73;1.30;;;;;;;3.28;100.00;103095.00;5047186;28;20581;-74
2022/01/21 05:04:31;;;;;;;8.73;1.47;;;;;;;3.17;100.00;103052.38;5022745;28;21007;-74
2022/01/21 05:06:56;;;;;;;9.23;1.80;;;;;;;3.31;100.00;103067.44;5046381;28;20433;-73
2022/01/21 05:09:33;;;;;;;10.70;2.30;;;;;;;3.27;100.00;103068.53;5047444;28;20727;-73
2022/01/21 05:12:01;;;;;;;5.30;1.53;;;;;;;3.47;100.00;103094.69;5045520;28;20198;-74
2022/01/21 05:17:14;;;;;;;9.73;1.47;;;;;;;3.38;100.00;103077.56;5015734;28;20434;-73
2022/01/21 05:19:40;;;;;;;9.77;1.80;;;;;;;3.50;100.00;103110.44;5045245;28;20671;-74
2022/01/21 05:22:06;;;;;;;6.33;1.83;;;;;;;3.68;100.00;103121.66;5046040;28;20488;-74
2022/01/21 05:24:31;;;;;;;8.23;1.53;;;;;;;3.55;100.00;103080.94;5044929;28;20176;-73
2022/01/21 05:26:58;;;;;;;7.20;1.80;;;;;;;3.58;100.00;103064.81;5029128;28;20414;-74
2022/01/21 05:29:30;;;;;;;4.67;1.60;;;;;;;3.47;100.00;103065.50;5047042;28;20692;-74
2022/01/21 05:31:56;;;;;;;7.67;1.63;;;;;;;3.98;100.00;103105.56;5045559;28;20521;-74
2022/01/21 05:34:22;;;;;;;4.50;1.17;;;;;;;3.69;100.00;103078.25;5030363;28;21041;-73
2022/01/21 05:36:48;;;;;;;9.70;1.73;;;;;;;3.92;100.00;103076.75;5045704;28;20644;-73
2022/01/21 05:39:16;;;;;;;9.37;2.27;;;;;;;3.75;100.00;103069.03;5029232;28;20481;-73
2022/01/21 05:41:47;;;;;;;5.10;1.57;;;;;;;4.00;100.00;103098.34;5044853;28;20415;-73
2022/01/21 05:44:20;;;;;;;6.43;1.73;;;;;;;3.91;100.00;103108.72;5047150;28;20448;-73
2022/01/21 05:46:55;;;;;;;6.63;1.53;;;;;;;3.81;100.00;103063.31;5040149;28;20798;-73
2022/01/21 05:49:25;;;;;;;6.17;1.40;;;;;;;3.76;100.00;103052.13;5045881;28;20449;-73
2022/01/21 05:51:53;;;;;;;13.63;1.53;;;;;;;3.89;100.00;103081.41;5027938;28;20903;-73
2022/01/21 05:54:25;;;;;;;8.87;1.90;;;;;;;3.69;100.00;103043.75;5045747;28;20914;-73
2022/01/21 05:56:51;;;;;;;4.90;1.40;;;;;;;4.07;100.00;103086.34;5046210;28;20419;-73
2022/01/21 05:59:17;;;;;;;8.57;2.30;;;;;;;4.07;100.00;103104.09;5046045;28;20527;-73
2022/01/21 06:01:42;;;;;;;8.00;1.73;;;;;;;4.13;100.00;103095.72;5046744;28;20950;-74
2022/01/21 06:04:08;;;;;;;9.30;1.77;;;;;;;3.88;100.00;103092.97;5046911;28;20183;-73
2022/01/21 06:06:34;;;;;;;4.73;1.50;;;;;;;3.96;100.00;103099.47;5045619;28;20565;-73
2022/01/21 06:08:59;;;;;;;5.17;1.40;;;;;;;3.55;100.00;103039.31;5046404;28;20212;-73
2022/01/21 06:11:25;;;;;;;8.50;1.40;;;;;;;3.30;100.00;103008.22;5044120;28;20196;-73
2022/01/21 06:13:51;;;;;;;11.93;1.87;;;;;;;3.85;100.00;103113.47;5046879;28;20191;-73
2022/01/21 06:16:17;;;;;;;7.13;1.73;;;;;;;3.56;100.00;103050.81;5042982;28;20261;-74
2022/01/21 06:18:43;;;;;;;7.03;1.70;;;;;;;3.83;100.00;103086.16;5045806;28;20923;-73
2022/01/21 06:21:09;;;;;;;6.67;1.90;;;;;;;3.92;100.00;103127.19;5043932;28;20926;-73
2022/01/21 06:23:35;;;;;;;8.07;2.27;;;;;;;3.52;100.00;103076.66;5044504;28;20433;-73
2022/01/21 06:26:00;;;;;;;8.17;1.87;;;;;;;3.61;100.00;103077.88;5045863;28;20484;-74
2022/01/21 06:28:25;;;;;;;6.13;1.50;;;;;;;3.85;100.00;103089.59;5045070;28;20277;-73
2022/01/21 06:30:52;;;;;;;8.77;2.20;;;;;;;4.07;100.00;103134.16;5044633;28;20593;-73
2022/01/21 06:33:18;;;;;;;6.70;1.60;;;;;;;4.18;100.00;103138.78;5045539;28;20563;-73
2022/01/21 06:35:43;;;;;;;6.30;1.73;;;;;;;4.01;100.00;103096.53;5044988;28;20509;-73
2022/01/21 06:38:08;;;;;;;6.30;1.70;;;;;;;3.86;100.00;103063.88;5044598;28;20180;-73
2022/01/21 06:40:34;;;;;;;12.53;2.00;;;;;;;4.06;100.00;103095.28;5045007;28;20214;-73
2022/01/21 06:43:02;;;;;;;6.20;1.43;;;;;;;3.97;100.00;103081.78;5043587;28;20329;-73
2022/01/21 06:45:29;;;;;;;9.60;2.07;;;;;;;4.32;100.00;103131.72;5044631;28;20188;-73
2022/01/21 06:47:54;;;;;;;4.07;1.40;;;;;;;3.97;100.00;103079.13;5044037;28;20784;-74
2022/01/21 06:50:20;;;;;;;9.13;1.70;;;;;;;4.12;100.00;103147.16;5045809;28;20453;-73
2022/01/21 06:52:45;;;;;;;9.10;2.00;;;;;;;3.94;100.00;103114.69;5043153;28;20196;-73
2022/01/21 06:55:10;;;;;;;11.10;1.60;;;;;;;3.80;100.00;103115.56;5044954;28;20195;-73
2022/01/21 06:57:39;;;;;;;8.50;2.60;;;;;;;4.06;100.00;103150.22;5045779;28;20222;-74
2022/01/21 07:00:07;;;;;;;7.30;1.47;;;;;;;4.11;100.00;103150.78;5047233;28;20235;-73
2022/01/21 07:02:32;;;;;;;7.90;1.47;;;;;;;3.65;100.00;103078.56;5046087;28;20475;-73
2022/01/21 07:04:58;;;;;;;4.10;1.33;;;;;;;4.12;100.00;103123.25;5045118;28;20438;-73
2022/01/21 07:07:23;;;;;;;3.40;0.83;;;;;;;4.06;100.00;103105.91;5020972;28;20358;-73
2022/01/21 07:09:48;;;;;;;4.67;1.13;;;;;;;3.97;100.00;103098.53;5045318;28;20199;-73
2022/01/21 07:12:14;;;;;;;3.37;1.37;;;;;;;4.16;100.00;103100.84;5044280;28;20996;-73
2022/01/21 07:14:39;;;;;;;5.70;1.13;;;;;;;3.90;100.00;103102.53;5044836;28;20180;-73
2022/01/21 07:17:05;;;;;;;7.07;1.60;;;;;;;3.73;100.00;103090.38;5044087;28;20219;-73
2022/01/21 07:19:30;;;;;;;4.07;2.03;;;;;;;3.56;100.00;103075.53;5042485;28;20203;-73
2022/01/21 07:21:56;;;;;;;9.83;1.90;;;;;;;3.64;100.00;103093.59;5043430;28;20184;-73
2022/01/21 07:24:21;;;;;;;4.77;1.87;;;;;;;3.36;100.00;103041.47;5043202;28;20184;-73
2022/01/21 07:26:47;;;;;;;8.27;1.97;;;;;;;3.69;100.00;103133.13;5044323;28;20192;-73
2022/01/21 07:29:12;;;;;;;6.43;2.13;;;;;;;3.71;100.00;103150.66;5027728;28;20234;-73
2022/01/21 07:31:38;;;;;;;6.37;1.77;;;;;;;3.73;100.00;103150.56;5044287;28;20644;-73
2022/01/21 07:34:06;;;;;;;7.70;1.73;;;;;;;3.48;100.00;103122.09;5044242;28;20468;-73
2022/01/21 07:36:33;;;;;;;6.73;1.70;;;;;;;3.40;100.00;103136.66;5043914;28;20180;-73
2022/01/21 07:38:59;;;;;;;7.00;1.73;;;;;;;3.60;100.00;103151.34;5044147;28;20601;-73
2022/01/21 07:41:24;;;;;;;8.73;1.90;;;;;;;3.54;100.00;103142.91;5044720;28;20426;-73
2022/01/21 07:43:50;;;;;;;10.53;2.00;;;;;;;3.59;100.00;103146.16;5045592;28;20436;-74
2022/01/21 07:46:16;;;;;;;10.20;2.60;;;;;;;3.57;100.00;103134.75;5047009;28;20341;-74
2022/01/21 07:48:42;;;;;;;6.40;1.60;;;;;;;3.84;100.00;103162.19;5048581;28;20200;-73
2022/01/21 07:51:07;;;;;;;10.70;1.90;;;;;;;3.62;100.00;103145.94;5048073;28;20440;-73
2022/01/21 07:53:33;;;;;;;6.00;1.97;;;;;;;3.69;100.00;103135.78;5048453;28;20266;-74
2022/01/21 07:55:58;;;;;;;5.13;1.87;;;;;;;3.94;100.00;103177.56;5030193;28;20188;-73
2022/01/21 07:58:24;;;;;;;6.83;1.53;;;;;;;3.85;100.00;103150.66;5046754;28;20668;-72
2022/01/21 08:00:49;;;;;;;9.70;2.37;;;;;;;3.76;100.00;103164.50;5045934;28;20203;-74
2022/01/21 08:03:15;;;;;;;8.53;1.70;;;;;;;3.89;100.00;103164.56;5046732;28;20187;-74
2022/01/21 08:05:42;;;;;;;8.20;1.53;;;;;;;3.92;100.00;103123.69;5023719;28;20175;-73
2022/01/21 08:08:08;;;;;;;7.90;2.10;;;;;;;4.03;100.00;103143.28;5046358;28;20458;-73
2022/01/21 08:10:33;;;;;;;12.73;2.10;;;;;;;3.77;100.00;103102.50;5048264;28;20511;-73
2022/01/21 08:13:00;;;;;;;10.13;1.73;;;;;;;4.03;100.00;103137.97;5046940;28;20245;-74
2022/01/21 08:15:26;;;;;;;3.77;1.27;;;;;;;4.23;100.00;103157.09;5046679;28;20412;-73
2022/01/21 08:17:52;;;;;;;9.13;1.90;;;;;;;4.15;100.00;103151.41;5047345;28;20433;-73
2022/01/21 08:20:17;;;;;;;16.83;2.67;;;;;;;4.18;100.00;103159.19;5046867;28;20458;-73
2022/01/21 08:22:43;;;;;;;11.40;2.13;;;;;;;4.32;100.00;103168.91;5047546;28;20184;-74
2022/01/21 08:25:08;;;;;;;7.90;2.50;;;;;;;4.42;100.00;103168.19;5046763;28;20196;-74
2022/01/21 08:27:35;;;;;;;12.83;3.10;;;;;;;4.14;100.00;103162.97;5046494;28;20493;-74
2022/01/21 08:30:00;;;;;;;6.97;2.30;;;;;;;4.19;100.00;103131.66;5030485;28;20203;-73
2022/01/21 08:32:26;;;;;;;9.77;2.03;;;;;;;4.24;100.00;103172.91;5046661;28;20456;-73
2022/01/21 08:34:51;;;;;;;13.43;2.30;;;;;;;4.24;100.00;103175.56;5028357;28;20195;-73
2022/01/21 08:37:18;;;;;;;8.87;2.80;;;;;;;4.24;100.00;103164.09;5048069;28;20180;-74
2022/01/21 08:39:43;;;;;;;14.83;3.20;;;;;;;4.40;100.00;103174.59;5047189;28;20203;-72
2022/01/21 08:42:09;;;;;;;12.37;2.50;;;;;;;4.32;100.00;103148.50;5046897;28;20441;-73
2022/01/21 08:44:35;;;;;;;11.43;2.97;;;;;;;4.59;100.00;103174.19;5048412;28;20192;-73
2022/01/21 08:47:01;;;;;;;17.17;2.90;;;;;;;4.70;100.00;103174.34;5048748;28;20425;-74
2022/01/21 08:49:27;;;;;;;15.17;2.63;;;;;;;4.16;100.00;103130.06;5047453;28;20656;-74
2022/01/21 08:51:55;;;;;;;14.77;3.30;;;;;;;4.48;100.00;103127.94;5048182;28;20429;-73
2022/01/21 08:54:22;;;;;;;16.73;3.57;;;;;;;3.93;100.00;103081.09;5046564;28;20895;-73
2022/01/21 08:56:50;;;;;;;9.73;2.90;;;;;;;4.65;100.00;103195.91;5046655;28;20559;-74
2022/01/21 08:59:17;;;;;;;19.73;2.73;;;;;;;4.60;100.00;103197.16;5045058;28;20447;-73
2022/01/21 09:01:43;;;;;;;10.03;2.87;;;;;;;4.78;100.00;103192.44;5044052;28;20418;-74
2022/01/21 09:04:09;;;;;;;11.63;2.80;;;;;;;4.66;100.00;103141.78;5045171;28;20539;-74
2022/01/21 09:06:34;;;;;;;11.37;2.70;;;;;;;4.32;100.00;103129.06;5046910;28;20468;-73
2022/01/21 09:09:00;;;;;;;14.43;2.97;;;;;;;4.61;100.00;103164.31;5045037;28;20284;-73
2022/01/21 09:11:25;;;;;;;15.80;3.20;;;;;;;4.78;100.00;103182.66;5045277;28;20230;-73
2022/01/21 09:13:51;;;;;;;10.80;2.73;;;;;;;4.67;100.00;103161.25;5045381;28;20187;-73
2022/01/21 09:16:18;;;;;;;12.20;2.67;;;;;;;4.55;100.00;103151.44;5044745;28;20195;-73
2022/01/21 09:18:49;;;;;;;10.17;2.80;;;;;;;4.98;100.00;103181.31;5045205;28;20452;-74
2022/01/21 09:21:24;;;;;;;13.63;3.30;;;;;;;4.90;100.00;103192.44;5045012;28;20462;-74
2022/01/21 09:23:50;;;;;;;18.57;2.80;;;;;;;5.06;100.00;103181.59;5045027;28;20413;-74
2022/01/21 09:26:17;;;;;;;11.17;2.60;;;;;;;5.13;100.00;103180.25;5046189;28;20894;-73
2022/01/21 09:31:11;;;;;;;17.80;2.70;;;;;;;5.16;100.00;103171.19;5009981;28;20482;-72
2022/01/21 09:33:37;;;;;;;10.13;2.53;;;;;;;5.15;100.00;103170.34;5017317;28;20427;-72
2022/01/21 09:36:03;;;;;;;13.90;3.30;;;;;;;4.95;100.00;103144.28;5019472;28;20426;-72
2022/01/21 09:38:29;;;;;;;18.40;3.00;;;;;;;4.73;100.00;103124.44;5017644;28;20807;-73
2022/01/21 09:40:55;;;;;;;15.33;3.00;;;;;;;5.17;100.00;103171.06;5019488;28;20204;-72
2022/01/21 09:43:20;;;;;;;16.67;2.97;;;;;;;4.82;100.00;103122.97;5017889;28;20255;-72
2022/01/21 09:45:51;;;;;;;16.53;2.70;;;;;;;4.54;100.00;103086.78;5003025;28;20510;-72
2022/01/21 09:48:24;;;;;;;17.70;3.10;;;;;;;4.97;100.00;103127.22;5017344;28;20240;-72
2022/01/21 09:50:52;;;;;;;15.53;3.10;;;;;;;5.21;100.00;103174.41;5019365;28;20442;-72
2022/01/21 09:53:30;;;;;;;13.63;3.00;;;;;;;5.18;100.00;103164.81;5018570;28;20431;-72
2022/01/21 09:55:57;;;;;;;13.27;2.93;;;;;;;5.19;100.00;103171.81;5017740;28;20430;-72
2022/01/21 09:58:23;;;;;;;12.50;2.63;;;;;;;5.33;100.00;103157.56;5017437;28;20423;-73
2022/01/21 10:00:48;;;;;;;16.33;3.43;;;;;;;4.79;100.00;103087.78;5002520;28;20486;-72
2022/01/21 10:03:15;;;;;;;22.43;4.23;;;;;;;4.97;100.00;103113.09;5018158;28;20184;-73
2022/01/21 10:05:46;;;;;;;8.80;2.30;;;;;;;4.92;100.00;103112.56;5003176;28;20194;-71
2022/01/21 10:08:13;;;;;;;10.60;2.53;;;;;;;5.42;100.00;103170.22;5019648;28;20420;-73
2022/01/21 10:10:41;;;;;;;18.60;2.70;;;;;;;5.12;100.00;103125.34;5016308;28;20454;-72
2022/01/21 10:13:08;;;;;;;16.20;2.80;;;;;;;5.12;100.00;103130.66;5019166;28;20926;-72
2022/01/21 10:15:34;;;;;;;15.37;3.10;;;;;;;5.47;100.00;103172.56;4999765;28;20939;-73
2022/01/21 10:18:14;;;;;;;16.97;3.30;;;;;;;5.18;100.00;103132.03;5016227;28;20419;-73
2022/01/21 10:21:05;;;;;;;14.53;3.93;;;;;;;5.47;100.00;103185.00;5017867;28;21138;-72
2022/01/21 10:23:33;;;;;;;13.80;2.60;;;;;;;5.17;100.00;103135.63;5019196;28;20455;-73
2022/01/21 10:26:06;;;;;;;14.40;2.57;;;;;;;5.52;100.00;103183.72;5017615;28;20469;-72
2022/01/21 10:28:33;;;;;;;14.37;2.90;;;;;;;5.59;100.00;103195.66;5018834;28;20438;-72
2022/01/21 10:31:17;;;;;;;14.60;2.50;;;;;;;5.55;100.00;103193.31;5017452;28;20525;-71
2022/01/21 10:33:46;;;;;;;16.63;2.53;;;;;;;5.53;100.00;103184.59;5016822;28;20790;-73
2022/01/21 10:36:31;;;;;;;12.00;2.60;;;;;;;5.68;100.00;103194.16;5015869;28;20435;-72
2022/01/21 10:39:18;;;;;;;8.17;2.30;;;;;;;5.52;100.00;103174.91;5003373;28;20820;-71
2022/01/21 10:41:49;;;;;;;19.87;2.73;;;;;;;5.65;100.00;103211.19;4997196;28;20436;-72
2022/01/21 10:44:17;;;;;;;9.83;2.20;;;;;;;5.59;100.00;103198.31;5016683;28;20512;-72
2022/01/21 10:46:49;;;;;;;17.30;2.30;;;;;;;5.27;100.00;103152.69;5019346;28;20458;-72
2022/01/21 10:49:15;;;;;;;7.80;1.57;;;;;;;5.72;100.00;103202.78;5014999;28;20440;-72
2022/01/21 10:51:50;;;;;;;5.40;1.73;;;;;;;5.44;100.00;103170.97;5015006;28;20537;-72
2022/01/21 10:54:26;;;;;;;7.03;1.80;;;;;;;5.73;100.00;103207.13;5017342;28;20426;-72
2022/01/21 10:57:10;;;;;;;8.33;1.40;;;;;;;5.79;100.00;103204.06;5017382;28;20421;-72
2022/01/21 10:59:57;;;;;;;7.87;1.90;;;;;;;5.66;100.00;103204.91;5017436;28;20467;-72
2022/01/21 11:02:47;;;;;;;6.10;1.77;;;;;;;5.31;100.00;103162.13;5016487;28;20422;-72
2022/01/21 11:05:24;;;;;;;10.43;2.00;;;;;;;5.60;100.00;103197.34;5018506;28;20415;-73
2022/01/21 11:07:57;;;;;;;13.20;2.07;;;;;;;5.57;100.00;103200.22;5018202;28;20489;-72
2022/01/21 11:10:31;;;;;;;13.47;2.00;;;;;;;5.68;100.00;103198.63;5017519;28;20995;-72
2022/01/21 11:12:57;;;;;;;11.07;1.80;;;;;;;5.35;100.00;103131.72;5018407;28;20430;-72
2022/01/21 11:15:23;;;;;;;9.33;1.77;;;;;;;5.57;100.00;103186.06;5018074;28;20423;-72
2022/01/21 11:18:00;;;;;;;7.87;1.90;;;;;;;5.61;100.00;103185.75;5018312;28;20234;-72
2022/01/21 11:20:39;;;;;;;9.23;2.03;;;;;;;5.59;100.00;103178.84;5022149;28;20215;-72
2022/01/21 11:23:05;;;;;;;8.80;1.60;;;;;;;5.33;100.00;103115.00;5019066;28;20459;-72
2022/01/21 11:25:56;;;;;;;8.83;1.93;;;;;;;5.56;100.00;103155.94;5022933;28;20442;-72
2022/01/21 11:28:37;;;;;;;9.13;1.80;;;;;;;5.63;100.00;103167.00;5020574;28;20422;-71
2022/01/21 11:31:03;;;;;;;6.10;1.50;;;;;;;5.66;100.00;103145.47;5020901;28;20498;-72
2022/01/21 11:33:29;;;;;;;12.90;2.43;;;;;;;5.60;100.00;103176.06;5021270;28;20427;-71
2022/01/21 11:35:55;;;;;;;8.90;2.10;;;;;;;5.50;100.00;103148.41;5020839;28;20423;-72
2022/01/21 11:38:23;;;;;;;5.47;1.60;;;;;;;5.70;100.00;103146.97;5021089;28;20962;-72
2022/01/21 11:40:50;;;;;;;13.67;1.70;;;;;;;5.53;100.00;103128.69;5020311;28;20787;-72
2022/01/21 11:43:17;;;;;;;8.53;1.77;;;;;;;5.68;100.00;103154.22;5020512;28;20509;-72
2022/01/21 11:51:38;;;;;;;8.50;2.30;;;;;;;5.50;100.00;103153.72;5019676;28;20518;-72
2022/01/21 11:54:13;;;;;;;9.67;2.23;;;;;;;5.64;100.00;103147.38;5022002;28;20458;-71
2022/01/21 11:56:46;;;;;;;11.57;3.00;;;;;;;5.60;100.00;103148.59;5005920;28;20427;-71
2022/01/21 11:59:33;;;;;;;8.90;2.30;;;;;;;5.63;100.00;103133.22;5021679;28;20451;-71
2022/01/21 12:02:15;;;;;;;13.10;2.90;;;;;;;5.53;100.00;103118.06;5021511;28;20428;-72
2022/01/21 12:04:47;;;;;;;12.43;2.47;;;;;;;5.74;100.00;103135.13;5021960;28;20422;-72
2022/01/21 12:07:35;;;;;;;11.23;2.67;;;;;;;5.52;100.00;103140.28;5006239;28;20819;-71
2022/01/21 12:10:05;;;;;;;14.43;3.17;;;;;;;5.78;100.00;103136.59;5019422;28;20812;-72
2022/01/21 12:12:51;;;;;;;12.10;2.03;;;;;;;5.69;100.00;103139.94;5019237;28;20428;-72
2022/01/21 12:21:00;;;;;;;15.50;2.37;;;;;;;5.78;100.00;103091.31;5020988;28;20466;-72
2022/01/21 12:23:28;;;;;;;13.20;2.43;;;;;;;6.08;100.00;103138.03;5020970;28;20423;-71
2022/01/21 12:26:08;;;;;;;18.87;2.70;;;;;;;6.14;100.00;103118.94;5021632;28;20509;-72
2022/01/21 12:28:34;;;;;;;11.47;3.03;;;;;;;6.04;100.00;103110.75;5019421;28;20500;-72